createdAt,value
2023-04-03T00:00:37.708Z,14.43
2023-04-03T00:03:05.572Z,19.75
2023-04-03T00:05:33.122Z,12.05
2023-04-03T00:08:00.866Z,14.55
2023-04-03T00:10:28.445Z,16.90
2023-04-03T00:12:55.906Z,17.35
2023-04-03T00:15:23.749Z,17.45
2023-04-03T00:17:52.618Z,16.90
2023-04-03T00:20:20.433Z,11.38
2023-04-03T00:22:47.972Z,11.18
2023-04-03T00:25:15.535Z,14.50
2023-04-03T00:27:43.080Z,17.77
2023-04-03T00:30:12.662Z,10.57
2023-04-03T00:32:40.389Z,13.32
2023-04-03T00:35:09.806Z,11.10
2023-04-03T00:37:37.468Z,11.35
2023-04-03T00:40:05.755Z,13.75
2023-04-03T00:42:33.255Z,11.70
2023-04-03T00:45:30.630Z,13.38
2023-04-03T00:48:00.505Z,17.92
2023-04-03T00:50:30.446Z,16.08
2023-04-03T00:52:59.201Z,16.85
2023-04-03T00:55:27.179Z,14.73
2023-04-03T00:57:55.531Z,13.32
2023-04-03T01:00:23.990Z,16.05
2023-04-03T01:02:51.852Z,18.13
2023-04-03T01:05:21.454Z,15.55
2023-04-03T01:07:50.864Z,16.27
2023-04-03T01:10:20.561Z,12.18
2023-04-03T01:12:48.870Z,14.30
2023-04-03T01:15:17.252Z,9.48
2023-04-03T01:17:46.199Z,13.20
2023-04-03T01:20:32.274Z,13.70
2023-04-03T01:23:07.092Z,11.50
2023-04-03T01:25:34.884Z,13.52
2023-04-03T01:28:02.642Z,14.18
2023-04-03T01:30:32.748Z,13.57
2023-04-03T01:33:01.664Z,13.90
2023-04-03T01:35:29.163Z,13.18
2023-04-03T01:37:56.607Z,16.38
2023-04-03T01:40:24.180Z,10.93
2023-04-03T01:42:51.782Z,14.35
2023-04-03T01:45:19.711Z,14.45
2023-04-03T01:47:47.261Z,15.65
2023-04-03T01:50:16.187Z,16.30
2023-04-03T01:52:43.995Z,14.65
2023-04-03T01:55:11.453Z,14.60
2023-04-03T01:57:38.935Z,16.17
2023-04-03T02:00:07.292Z,15.30
2023-04-03T02:02:34.857Z,14.95
2023-04-03T02:05:02.371Z,14.70
2023-04-03T02:07:31.160Z,10.35
2023-04-03T02:09:58.647Z,13.52
2023-04-03T02:12:26.186Z,18.27
2023-04-03T02:14:53.698Z,16.58
2023-04-03T02:17:21.176Z,16.40
2023-04-03T02:19:48.742Z,15.27
2023-04-03T02:22:16.416Z,12.32
2023-04-03T02:24:45.732Z,15.13
2023-04-03T02:27:13.202Z,12.90
2023-04-03T02:29:40.862Z,14.68
2023-04-03T02:32:08.463Z,15.23
2023-04-03T02:34:36.176Z,17.30
2023-04-03T02:37:03.880Z,16.55
2023-04-03T02:39:31.385Z,15.25
2023-04-03T02:42:00.223Z,22.23
2023-04-03T02:44:27.721Z,12.20
2023-04-03T02:46:55.239Z,15.50
2023-04-03T02:49:22.710Z,12.82
2023-04-03T02:51:50.225Z,15.13
2023-04-03T02:54:17.851Z,15.18
2023-04-03T02:56:45.347Z,17.70
2023-04-03T02:59:14.269Z,18.63
2023-04-03T03:01:41.924Z,14.05
2023-04-03T03:04:09.593Z,13.45
2023-04-03T03:06:37.080Z,12.95
2023-04-03T03:09:04.721Z,13.30
2023-04-03T03:11:32.272Z,16.52
2023-04-03T03:13:59.968Z,14.02
2023-04-03T03:16:29.084Z,13.38
2023-04-03T03:18:57.859Z,15.00
2023-04-03T03:21:25.524Z,16.38
2023-04-03T03:23:53.029Z,12.95
2023-04-03T03:26:20.532Z,17.23
2023-04-03T03:28:48.208Z,16.52
2023-04-03T03:31:16.429Z,16.73
2023-04-03T03:33:45.473Z,21.42
2023-04-03T03:36:13.060Z,16.70
2023-04-03T03:38:40.551Z,14.63
2023-04-03T03:41:08.391Z,16.50
2023-04-03T03:43:35.863Z,13.57
2023-04-03T03:46:03.542Z,14.00
2023-04-03T03:48:31.132Z,13.18
2023-04-03T03:50:59.961Z,14.05
2023-04-03T03:53:27.780Z,18.40
2023-04-03T03:55:55.527Z,15.93
2023-04-03T03:58:23.035Z,16.52
2023-04-03T04:00:50.709Z,16.35
2023-04-03T04:03:18.607Z,19.98
2023-04-03T04:05:46.187Z,15.00
2023-04-03T04:08:15.153Z,16.15
2023-04-03T04:10:42.650Z,17.60
2023-04-03T04:13:10.165Z,12.85
2023-04-03T04:15:38.019Z,15.77
2023-04-03T04:18:06.033Z,16.65
2023-04-03T04:20:34.043Z,13.23
2023-04-03T04:23:01.630Z,19.67
2023-04-03T04:25:30.486Z,18.55
2023-04-03T04:27:58.055Z,18.98
2023-04-03T04:30:25.723Z,16.77
2023-04-03T04:32:53.199Z,15.77
2023-04-03T04:35:20.831Z,17.13
2023-04-03T04:37:48.440Z,15.43
2023-04-03T04:40:16.147Z,17.60
2023-04-03T04:42:44.999Z,18.65
2023-04-03T04:45:12.731Z,16.95
2023-04-03T04:47:40.367Z,16.17
2023-04-03T04:50:08.365Z,13.65
2023-04-03T04:52:35.869Z,20.25
2023-04-03T04:55:03.480Z,21.13
2023-04-03T04:57:31.050Z,17.33
2023-04-03T05:00:00.007Z,15.40
2023-04-03T05:02:27.553Z,14.50
2023-04-03T05:04:55.066Z,15.27
2023-04-03T05:07:22.819Z,12.80
2023-04-03T05:09:50.292Z,18.02
2023-04-03T05:12:18.450Z,15.00
2023-04-03T05:14:45.992Z,14.38
2023-04-03T05:17:14.957Z,16.85
2023-04-03T05:19:42.718Z,19.38
2023-04-03T05:22:10.346Z,15.07
2023-04-03T05:24:38.065Z,17.75
2023-04-03T05:27:05.769Z,15.40
2023-04-03T05:29:33.679Z,20.02
2023-04-03T05:32:01.413Z,16.00
2023-04-03T05:34:30.702Z,13.45
2023-04-03T05:36:58.410Z,16.50
2023-04-03T05:39:26.578Z,19.00
2023-04-03T05:41:54.112Z,13.00
2023-04-03T05:44:21.753Z,19.30
2023-04-03T05:46:49.570Z,17.20
2023-04-03T05:49:17.317Z,14.60
2023-04-03T05:51:46.823Z,17.52
2023-04-03T05:54:15.745Z,17.85
2023-04-03T05:56:43.564Z,18.65
2023-04-03T05:59:14.821Z,16.67
2023-04-03T06:01:43.676Z,18.48
2023-04-03T06:04:11.821Z,19.13
2023-04-03T06:06:52.523Z,15.80
2023-04-03T06:09:20.595Z,16.98
2023-04-03T06:11:49.625Z,22.52
2023-04-03T06:14:17.353Z,17.13
2023-04-03T06:16:45.751Z,13.43
2023-04-03T06:19:13.843Z,14.57
2023-04-03T06:21:41.519Z,14.77
2023-04-03T06:24:12.292Z,14.30
2023-04-03T06:26:39.853Z,12.80
2023-04-03T06:29:07.615Z,16.80
2023-04-03T06:31:35.780Z,14.45
2023-04-03T06:34:03.363Z,14.20
2023-04-03T06:36:31.388Z,14.90
2023-04-03T06:38:58.996Z,15.50
2023-04-03T06:41:28.428Z,16.63
2023-04-03T06:43:57.474Z,13.95
2023-04-03T06:46:25.775Z,13.70
2023-04-03T06:48:54.353Z,18.13
2023-04-03T06:51:23.444Z,14.70
2023-04-03T06:54:00.165Z,14.98
2023-04-03T06:56:30.139Z,14.98
2023-04-03T06:58:58.748Z,17.10
2023-04-03T07:01:34.344Z,12.00
2023-04-03T07:04:02.094Z,16.13
2023-04-03T07:06:29.650Z,16.83
2023-04-03T07:08:57.528Z,13.95
2023-04-03T07:11:26.858Z,15.27
2023-04-03T07:13:58.542Z,16.15
2023-04-03T07:16:38.742Z,19.38
2023-04-03T07:19:38.499Z,15.02
2023-04-03T07:22:14.498Z,16.10
2023-04-03T07:28:29.889Z,12.65
2023-04-03T07:31:04.263Z,12.38
2023-04-03T07:33:50.950Z,16.27
2023-04-03T07:36:23.704Z,14.70
2023-04-03T07:44:18.292Z,10.43
2023-04-03T07:46:49.484Z,13.63
2023-04-03T07:49:19.098Z,16.15
2023-04-03T07:51:47.694Z,13.55
2023-04-03T07:54:17.202Z,13.38
2023-04-03T07:56:45.073Z,16.33
2023-04-03T07:59:19.257Z,15.13
2023-04-03T08:01:50.763Z,10.20
2023-04-03T08:07:25.148Z,14.70
2023-04-03T08:10:00.743Z,13.75
2023-04-03T08:12:32.921Z,13.80
2023-04-03T08:15:04.418Z,13.45
2023-04-03T08:17:36.534Z,12.10
2023-04-03T08:20:04.524Z,12.70
2023-04-03T08:22:32.500Z,14.27
2023-04-03T08:25:24.190Z,9.25
2023-04-03T08:27:51.963Z,9.95
2023-04-03T08:30:19.652Z,12.93
2023-04-03T08:32:48.662Z,16.77
2023-04-03T08:35:21.916Z,15.60
2023-04-03T08:37:52.667Z,11.38
2023-04-03T08:40:20.492Z,10.18
2023-04-03T08:42:56.420Z,14.05
2023-04-03T08:45:28.338Z,10.05
2023-04-03T08:48:03.234Z,10.80
2023-04-03T08:50:40.551Z,11.48
2023-04-03T08:53:08.671Z,9.65
2023-04-03T08:55:40.133Z,8.63
2023-04-03T08:58:09.806Z,10.68
2023-04-03T09:00:44.021Z,10.32
2023-04-03T09:06:09.204Z,11.13
2023-04-03T09:08:39.251Z,10.38
2023-04-03T09:11:11.575Z,8.48
2023-04-03T09:13:50.173Z,9.30
2023-04-03T09:16:30.423Z,11.10
2023-04-03T09:19:07.004Z,10.40
2023-04-03T09:21:40.952Z,9.88
2023-04-03T09:24:15.334Z,9.43
2023-04-03T09:32:31.881Z,10.27
2023-04-03T09:35:23.400Z,13.50
2023-04-03T09:38:01.369Z,14.23
2023-04-03T09:40:42.224Z,17.98
2023-04-03T09:49:14.043Z,12.45
2023-04-03T09:51:49.202Z,12.15
2023-04-03T09:57:27.906Z,9.18
2023-04-03T10:00:23.736Z,9.18
2023-04-03T10:02:56.797Z,11.27
2023-04-03T10:05:36.889Z,12.35
2023-04-03T10:08:24.990Z,12.60
2023-04-03T10:11:08.285Z,11.20
2023-04-03T10:13:45.216Z,9.77
2023-04-03T10:16:19.641Z,10.35
2023-04-03T10:18:48.849Z,10.60
2023-04-03T10:21:30.106Z,8.27
2023-04-03T10:24:04.346Z,13.55
2023-04-03T10:26:37.545Z,12.93
2023-04-03T10:29:11.684Z,11.82
2023-04-03T10:31:41.988Z,15.25
2023-04-03T10:34:17.649Z,13.77
2023-04-03T10:36:48.158Z,10.80
2023-04-03T10:39:23.658Z,17.55
2023-04-03T10:42:09.343Z,13.70
2023-04-03T10:44:47.298Z,12.10
2023-04-03T10:47:19.322Z,12.20
2023-04-03T10:49:59.379Z,14.98
2023-04-03T10:52:30.533Z,13.93
2023-04-03T10:55:03.579Z,11.32
2023-04-03T10:57:32.081Z,13.50
2023-04-03T11:00:01.552Z,12.02
2023-04-03T11:02:31.672Z,11.27
2023-04-03T11:05:03.209Z,15.23
2023-04-03T11:07:33.294Z,13.63
2023-04-03T11:10:05.160Z,13.82
2023-04-03T11:12:38.535Z,11.38
2023-04-03T11:15:07.222Z,12.27
2023-04-03T11:17:38.211Z,12.88
2023-04-03T11:20:32.053Z,10.23
2023-04-03T11:23:04.200Z,13.27
2023-04-03T11:25:35.335Z,8.20
2023-04-03T11:28:04.779Z,10.85
2023-04-03T11:30:38.628Z,9.93
2023-04-03T11:33:29.006Z,16.52
2023-04-03T11:35:59.843Z,8.70
2023-04-03T11:38:30.334Z,7.72
2023-04-03T11:40:59.382Z,12.35
2023-04-03T11:43:28.296Z,7.72
2023-04-03T11:45:56.785Z,7.78
2023-04-03T11:48:43.005Z,7.65
2023-04-03T11:51:25.927Z,6.65
2023-04-03T11:53:53.574Z,6.80
2023-04-03T11:56:32.556Z,8.90
2023-04-03T11:59:19.448Z,7.38
2023-04-03T12:01:48.034Z,11.30
2023-04-03T12:04:44.203Z,9.65
2023-04-03T12:07:37.049Z,9.32
2023-04-03T12:10:30.372Z,8.98
2023-04-03T12:13:03.355Z,9.07
2023-04-03T12:15:52.387Z,7.05
2023-04-03T12:18:53.206Z,6.97
2023-04-03T12:21:22.459Z,6.65
2023-04-03T12:24:04.060Z,9.88
2023-04-03T12:26:42.105Z,7.95
2023-04-03T12:29:19.719Z,14.20
2023-04-03T12:31:52.437Z,7.80
2023-04-03T12:34:40.097Z,9.02
2023-04-03T12:37:11.223Z,8.52
2023-04-03T12:39:46.163Z,10.48
2023-04-03T12:42:21.820Z,11.15
2023-04-03T12:44:55.240Z,7.82
2023-04-03T12:47:27.785Z,13.43
2023-04-03T12:49:56.184Z,8.57
2023-04-03T12:52:28.712Z,10.02
2023-04-03T12:54:57.346Z,7.32
2023-04-03T12:57:27.457Z,8.65
2023-04-03T12:59:57.426Z,12.25
2023-04-03T13:02:27.147Z,12.95
2023-04-03T13:04:55.641Z,15.80
2023-04-03T13:07:29.659Z,10.45
2023-04-03T13:09:58.062Z,12.57
2023-04-03T13:12:25.533Z,9.45
2023-04-03T13:14:54.592Z,12.45
2023-04-03T13:17:23.476Z,8.63
2023-04-03T13:19:51.475Z,9.63
2023-04-03T13:22:27.393Z,13.15
2023-04-03T13:24:56.144Z,8.77
2023-04-03T13:27:24.139Z,9.35
2023-04-03T13:29:52.391Z,10.25
2023-04-03T13:32:21.916Z,8.95
2023-04-03T13:34:51.072Z,11.57
2023-04-03T13:37:22.541Z,9.60
2023-04-03T13:39:58.849Z,7.38
2023-04-03T13:42:28.077Z,8.23
2023-04-03T13:45:10.876Z,8.85
2023-04-03T13:47:40.768Z,7.88
2023-04-03T13:50:17.459Z,5.57
2023-04-03T13:52:47.746Z,9.00
2023-04-03T13:55:26.013Z,6.43
2023-04-03T13:57:55.204Z,8.70
2023-04-03T14:00:29.235Z,6.28
2023-04-03T14:02:58.220Z,10.02
2023-04-03T14:05:27.702Z,7.93
2023-04-03T14:07:55.409Z,10.50
2023-04-03T14:10:23.281Z,6.30
2023-04-03T14:12:52.157Z,7.30
2023-04-03T14:15:20.973Z,6.72
2023-04-03T14:17:48.740Z,8.18
2023-04-03T14:20:17.567Z,7.40
2023-04-03T14:22:46.564Z,8.23
2023-04-03T14:25:14.199Z,5.78
2023-04-03T14:27:44.459Z,6.20
2023-04-03T14:30:16.570Z,5.47
2023-04-03T14:32:44.268Z,9.02
2023-04-03T14:35:11.817Z,9.40
2023-04-03T14:37:39.446Z,7.25
2023-04-03T14:40:09.925Z,7.35
2023-04-03T14:42:39.447Z,6.13
2023-04-03T14:45:09.729Z,6.53
2023-04-03T14:47:41.895Z,6.63
2023-04-03T14:50:34.476Z,6.85
2023-04-03T14:53:02.001Z,4.68
2023-04-03T14:55:37.192Z,12.23
2023-04-03T14:58:04.680Z,6.57
2023-04-03T15:00:32.875Z,7.93
2023-04-03T15:03:00.688Z,5.47
2023-04-03T15:05:28.558Z,5.40
2023-04-03T15:07:57.407Z,5.85
2023-04-03T15:10:26.012Z,4.80
2023-04-03T15:12:55.021Z,6.60
2023-04-03T15:15:23.233Z,6.20
2023-04-03T15:17:55.281Z,6.45
2023-04-03T15:20:26.214Z,7.75
2023-04-03T15:22:53.846Z,5.93
2023-04-03T15:25:21.484Z,6.90
2023-04-03T15:27:49.039Z,9.05
2023-04-03T15:30:19.164Z,7.85
2023-04-03T15:32:47.010Z,4.85
2023-04-03T15:35:40.022Z,6.28
2023-04-03T15:38:08.413Z,5.88
2023-04-03T15:40:38.226Z,3.83
2023-04-03T15:43:06.811Z,6.22
2023-04-03T15:48:29.605Z,4.35
2023-04-03T15:50:58.613Z,3.15
2023-04-03T15:53:27.201Z,5.43
2023-04-03T15:55:54.924Z,4.57
2023-04-03T15:58:22.774Z,4.35
2023-04-03T16:00:51.759Z,6.97
2023-04-03T16:03:21.054Z,5.05
2023-04-03T16:05:49.143Z,6.28
2023-04-03T16:08:17.476Z,6.00
2023-04-03T16:10:46.736Z,4.68
2023-04-03T16:13:14.362Z,4.35
2023-04-03T16:15:44.692Z,5.10
2023-04-03T16:18:16.018Z,6.47
2023-04-03T16:20:44.831Z,5.90
2023-04-03T16:23:13.390Z,5.10
2023-04-03T16:25:50.544Z,6.32
2023-04-03T16:28:47.929Z,4.13
2023-04-03T16:31:22.821Z,7.35
2023-04-03T16:33:55.283Z,3.83
2023-04-03T16:36:26.656Z,5.70
2023-04-03T16:38:54.212Z,5.35
2023-04-03T16:41:21.759Z,6.68
2023-04-03T16:43:50.572Z,4.18
2023-04-03T16:46:21.261Z,4.88
2023-04-03T16:48:48.965Z,5.50
2023-04-03T16:51:17.947Z,5.20
2023-04-03T16:53:45.547Z,5.22
2023-04-03T16:56:16.126Z,7.82
2023-04-03T16:58:44.477Z,8.48
2023-04-03T17:01:12.753Z,5.70
2023-04-03T17:03:40.464Z,4.15
2023-04-03T17:06:08.633Z,4.18
2023-04-03T17:08:37.688Z,3.45
2023-04-03T17:11:05.450Z,7.88
2023-04-03T17:13:35.871Z,6.85
2023-04-03T17:16:05.749Z,4.85
2023-04-03T17:18:33.984Z,5.05
2023-04-03T17:21:02.529Z,5.15
2023-04-03T17:23:30.810Z,4.35
2023-04-03T17:25:59.974Z,7.40
2023-04-03T17:28:28.891Z,5.72
2023-04-03T17:30:56.910Z,6.10
2023-04-03T17:33:24.655Z,6.68
2023-04-03T17:35:53.749Z,7.70
2023-04-03T17:38:26.363Z,6.13
2023-04-03T17:43:47.257Z,5.13
2023-04-03T17:46:16.827Z,6.13
2023-04-03T17:48:44.991Z,5.35
2023-04-03T17:51:14.030Z,7.90
2023-04-03T17:53:41.986Z,4.93
2023-04-03T17:56:11.772Z,7.60
2023-04-03T17:58:47.810Z,7.60
2023-04-03T18:01:17.779Z,10.35
2023-04-03T18:03:46.216Z,7.25
2023-04-03T18:06:14.903Z,6.30
2023-04-03T18:08:43.779Z,7.05
2023-04-03T18:11:11.597Z,7.75
2023-04-03T18:14:04.864Z,5.63
2023-04-03T18:16:58.742Z,9.00
2023-04-03T18:19:28.418Z,8.93
2023-04-03T18:22:00.579Z,6.53
2023-04-03T18:24:28.579Z,7.88
2023-04-03T18:26:59.604Z,9.65
2023-04-03T18:29:30.201Z,7.72
2023-04-03T18:32:13.045Z,15.18
2023-04-03T18:34:41.988Z,9.40
2023-04-03T18:37:09.972Z,7.13
2023-04-03T18:39:37.624Z,7.55
2023-04-03T18:42:07.137Z,7.10
2023-04-03T18:44:35.411Z,10.80
2023-04-03T18:47:03.155Z,9.90
2023-04-03T18:49:31.863Z,9.05
2023-04-03T18:52:01.162Z,12.55
2023-04-03T18:54:28.915Z,7.35
2023-04-03T18:56:56.514Z,6.88
2023-04-03T18:59:25.085Z,7.32
2023-04-03T19:01:52.836Z,7.55
2023-04-03T19:04:20.686Z,6.72
2023-04-03T19:06:48.656Z,8.93
2023-04-03T19:09:17.683Z,13.05
2023-04-03T19:11:45.404Z,8.43
2023-04-03T19:14:16.741Z,7.75
2023-04-03T19:16:45.016Z,7.32
2023-04-03T19:19:12.851Z,10.40
2023-04-03T19:21:42.069Z,11.35
2023-04-03T19:24:10.315Z,8.25
2023-04-03T19:26:39.618Z,10.25
2023-04-03T19:29:07.374Z,7.93
2023-04-03T19:31:36.793Z,8.85
2023-04-03T19:34:04.781Z,10.35
2023-04-03T19:36:32.484Z,7.18
2023-04-03T19:39:00.043Z,9.02
2023-04-03T19:41:28.649Z,11.45
2023-04-03T19:43:57.583Z,10.90
2023-04-03T19:49:17.500Z,7.90
2023-04-03T19:51:45.062Z,7.63
2023-04-03T19:54:12.615Z,6.13
2023-04-03T19:56:40.160Z,10.00
2023-04-03T19:59:10.089Z,8.55
2023-04-03T20:01:38.175Z,8.02
2023-04-03T20:04:05.855Z,10.02
2023-04-03T20:06:33.482Z,8.73
2023-04-03T20:09:30.316Z,7.97
2023-04-03T20:12:02.225Z,9.18
2023-04-03T20:14:57.491Z,6.22
2023-04-03T20:17:30.837Z,9.88
2023-04-03T20:20:07.552Z,8.98
2023-04-03T20:23:00.880Z,9.02
2023-04-03T20:25:48.106Z,6.75
2023-04-03T20:28:17.019Z,8.02
2023-04-03T20:33:39.118Z,9.68
2023-04-03T20:36:06.798Z,6.28
2023-04-03T20:38:34.423Z,7.20
2023-04-03T20:41:02.001Z,7.35
2023-04-03T20:43:29.964Z,8.65
2023-04-03T20:46:00.419Z,8.82
2023-04-03T20:48:28.219Z,9.52
2023-04-03T20:50:56.018Z,8.23
2023-04-03T20:53:23.771Z,8.55
2023-04-03T20:55:59.977Z,7.15
2023-04-03T20:58:29.740Z,7.15
2023-04-03T21:00:57.317Z,8.38
2023-04-03T21:03:27.458Z,9.57
2023-04-03T21:05:59.829Z,8.48
2023-04-03T21:11:56.948Z,9.10
2023-04-03T21:14:43.664Z,9.02
2023-04-03T21:17:11.097Z,9.25
2023-04-03T21:19:45.982Z,15.73
2023-04-03T21:22:14.676Z,9.38
2023-04-03T21:24:42.173Z,10.48
2023-04-03T21:27:09.677Z,15.57
2023-04-03T21:29:37.360Z,11.05
2023-04-03T21:32:04.806Z,7.72
2023-04-03T21:34:32.623Z,9.02
2023-04-03T21:39:56.541Z,9.57
2023-04-03T21:42:24.292Z,10.85
2023-04-03T21:44:51.988Z,9.95
2023-04-03T21:47:43.795Z,11.43
2023-04-03T21:50:11.813Z,10.52
2023-04-03T21:52:40.642Z,12.02
2023-04-03T21:55:09.399Z,8.57
2023-04-03T21:57:36.911Z,9.27
2023-04-03T22:00:06.256Z,10.60
2023-04-03T22:02:36.234Z,11.30
2023-04-03T22:05:03.810Z,10.20
2023-04-03T22:07:31.461Z,11.25
2023-04-03T22:10:00.471Z,11.65
2023-04-03T22:12:29.449Z,12.60
2023-04-03T22:14:56.948Z,11.13
2023-04-03T22:17:26.099Z,11.73
2023-04-03T22:19:53.615Z,10.82
2023-04-03T22:22:21.052Z,9.57
2023-04-03T22:27:41.957Z,10.43
2023-04-03T22:30:09.756Z,11.38
2023-04-03T22:33:03.211Z,7.82
2023-04-03T22:35:33.221Z,8.57
2023-04-03T22:38:00.676Z,9.02
2023-04-03T22:40:30.084Z,7.40
2023-04-03T22:42:58.956Z,8.75
2023-04-03T22:45:26.510Z,11.45
2023-04-03T22:47:58.939Z,9.02
2023-04-03T22:50:26.682Z,7.38
2023-04-03T22:52:54.241Z,7.50
2023-04-03T22:55:21.826Z,8.20
2023-04-03T22:57:49.685Z,7.53
2023-04-03T23:00:20.593Z,8.52
2023-04-03T23:02:48.149Z,9.27
2023-04-03T23:05:15.795Z,7.10
2023-04-03T23:07:43.648Z,11.30
2023-04-03T23:10:11.585Z,6.07
2023-04-03T23:12:39.171Z,10.75
2023-04-03T23:15:07.245Z,6.95
2023-04-03T23:17:38.375Z,6.78
2023-04-03T23:20:06.578Z,5.55
2023-04-03T23:22:34.059Z,8.38
2023-04-03T23:25:01.614Z,4.38
2023-04-03T23:27:30.541Z,4.55
2023-04-03T23:29:58.076Z,7.60
2023-04-03T23:32:26.089Z,9.50
2023-04-03T23:34:55.023Z,6.07
2023-04-03T23:37:22.500Z,6.72
2023-04-03T23:39:50.129Z,6.55
2023-04-03T23:42:17.632Z,5.97
2023-04-03T23:44:45.104Z,9.98
2023-04-03T23:47:12.790Z,5.95
2023-04-03T23:49:40.310Z,6.40
2023-04-03T23:52:09.137Z,7.05
2023-04-03T23:54:36.932Z,4.65
2023-04-03T23:57:04.490Z,5.15
2023-04-03T23:59:32.230Z,5.72
